createdAt,value
2019-02-20T00:00:11.695Z,51.97
2019-02-20T00:02:43.826Z,50.17
2019-02-20T00:05:33.836Z,47.57
2019-02-20T00:08:04.446Z,47.37
2019-02-20T00:10:35.232Z,49.53
2019-02-20T00:13:06.306Z,44.08
2019-02-20T00:15:42.014Z,46.77
2019-02-20T00:18:13.990Z,45.93
2019-02-20T00:20:44.269Z,55.23
2019-02-20T00:23:15.856Z,51.13
2019-02-20T00:25:48.015Z,48.33
2019-02-20T00:28:21.362Z,46.93
2019-02-20T00:30:51.740Z,42.23
2019-02-20T00:33:21.355Z,46.93
2019-02-20T00:35:52.409Z,42.93
2019-02-20T00:38:23.422Z,41.63
2019-02-20T00:40:54.855Z,41.20
2019-02-20T00:43:25.726Z,40.27
2019-02-20T00:45:56.688Z,39.50
2019-02-20T00:48:45.984Z,40.57
2019-02-20T00:51:17.766Z,41.40
2019-02-20T00:53:50.817Z,39.00
2019-02-20T00:56:21.551Z,39.35
2019-02-20T00:58:53.707Z,42.13
2019-02-20T01:01:24.298Z,37.03
2019-02-20T01:03:55.372Z,37.43
2019-02-20T01:06:27.388Z,34.70
2019-02-20T01:08:59.133Z,40.37
2019-02-20T01:11:31.146Z,38.43
2019-02-20T01:14:03.925Z,39.40
2019-02-20T01:16:37.221Z,36.90
2019-02-20T01:19:08.416Z,33.97
2019-02-20T01:21:38.021Z,32.90
2019-02-20T01:24:09.268Z,35.83
2019-02-20T01:26:39.043Z,35.17
2019-02-20T01:29:12.405Z,36.97
2019-02-20T01:31:42.920Z,33.93
2019-02-20T01:34:13.615Z,34.43
2019-02-20T01:36:44.393Z,35.23
2019-02-20T01:39:15.598Z,34.10
2019-02-20T01:41:48.181Z,35.30
2019-02-20T01:44:18.979Z,31.27
2019-02-20T01:46:51.233Z,32.77
2019-02-20T01:49:23.502Z,34.37
2019-02-20T01:51:55.616Z,30.47
2019-02-20T01:54:26.628Z,31.40
2019-02-20T01:56:58.368Z,32.87
2019-02-20T01:59:29.593Z,31.93
2019-02-20T02:01:59.187Z,31.10
2019-02-20T02:04:32.859Z,30.13
2019-02-20T02:07:03.197Z,30.30
2019-02-20T02:09:34.885Z,33.10
2019-02-20T02:12:04.657Z,28.77
2019-02-20T02:14:34.822Z,31.93
2019-02-20T02:17:08.915Z,31.73
2019-02-20T02:19:39.524Z,30.80
2019-02-20T02:22:12.353Z,28.80
2019-02-20T02:24:43.426Z,28.70
2019-02-20T02:27:13.759Z,32.98
2019-02-20T02:29:43.738Z,33.90
2019-02-20T02:32:13.934Z,30.20
2019-02-20T02:34:45.734Z,33.47
2019-02-20T02:37:16.979Z,31.30
2019-02-20T02:39:46.602Z,29.03
2019-02-20T02:42:17.494Z,31.67
2019-02-20T02:44:49.147Z,30.47
2019-02-20T02:47:19.846Z,31.37
2019-02-20T02:49:50.320Z,34.07
2019-02-20T02:52:22.425Z,31.10
2019-02-20T02:54:54.010Z,32.60
2019-02-20T02:57:24.754Z,30.57
2019-02-20T02:59:54.617Z,32.33
2019-02-20T03:02:26.272Z,28.70
2019-02-20T03:04:57.615Z,30.50
2019-02-20T03:07:28.348Z,31.90
2019-02-20T03:10:00.679Z,30.87
2019-02-20T03:12:30.404Z,27.70
2019-02-20T03:15:03.205Z,31.77
2019-02-20T03:17:32.928Z,32.10
2019-02-20T03:20:05.912Z,31.90
2019-02-20T03:22:35.722Z,29.33
2019-02-20T03:25:07.606Z,30.82
2019-02-20T03:27:37.307Z,32.20
2019-02-20T03:30:07.544Z,31.83
2019-02-20T03:32:38.014Z,31.17
2019-02-20T03:35:08.535Z,30.33
2019-02-20T03:37:38.314Z,28.17
2019-02-20T03:40:11.878Z,30.90
2019-02-20T03:42:43.574Z,33.23
2019-02-20T03:45:14.884Z,32.40
2019-02-20T03:47:46.452Z,34.60
2019-02-20T03:50:17.888Z,32.97
2019-02-20T03:52:48.240Z,31.63
2019-02-20T03:55:18.888Z,31.23
2019-02-20T03:57:50.881Z,32.97
2019-02-20T04:00:21.626Z,28.40
2019-02-20T04:02:52.067Z,30.57
2019-02-20T04:05:22.871Z,30.52
2019-02-20T04:07:54.983Z,30.17
2019-02-20T04:10:25.688Z,30.30
2019-02-20T04:12:55.995Z,31.97
2019-02-20T04:15:26.948Z,31.80
2019-02-20T04:17:59.776Z,32.33
2019-02-20T04:20:31.336Z,30.73
2019-02-20T04:23:03.351Z,29.57
2019-02-20T04:25:33.697Z,31.60
2019-02-20T04:28:03.929Z,31.80
2019-02-20T04:30:34.994Z,29.07
2019-02-20T04:33:08.703Z,31.83
2019-02-20T04:35:40.702Z,31.23
2019-02-20T04:38:11.084Z,34.63
2019-02-20T04:40:41.743Z,31.87
2019-02-20T04:43:13.345Z,30.60
2019-02-20T04:45:43.185Z,33.30
2019-02-20T04:48:14.360Z,31.47
2019-02-20T04:50:45.105Z,32.00
2019-02-20T04:53:15.317Z,28.47
2019-02-20T04:55:45.741Z,34.53
2019-02-20T04:58:18.687Z,29.95
2019-02-20T05:00:52.058Z,32.00
2019-02-20T05:03:24.939Z,35.93
2019-02-20T05:05:55.970Z,34.90
2019-02-20T05:08:28.014Z,39.93
2019-02-20T05:11:00.174Z,53.77
2019-02-20T05:13:30.571Z,35.27
2019-02-20T05:16:02.645Z,35.80
2019-02-20T05:18:36.183Z,36.03
2019-02-20T05:21:09.626Z,38.50
2019-02-20T05:23:42.841Z,37.57
2019-02-20T05:26:13.943Z,32.42
2019-02-20T05:28:44.261Z,38.80
2019-02-20T05:31:17.501Z,32.27
2019-02-20T05:33:49.351Z,36.73
2019-02-20T05:38:53.338Z,31.83
2019-02-20T05:41:27.487Z,39.37
2019-02-20T05:43:59.568Z,39.00
2019-02-20T05:46:30.647Z,35.00
2019-02-20T05:49:01.680Z,37.27
2019-02-20T05:51:30.988Z,32.03
2019-02-20T05:54:04.161Z,35.53
2019-02-20T05:56:35.506Z,31.83
2019-02-20T05:59:05.886Z,36.93
2019-02-20T06:01:39.628Z,32.27
2019-02-20T06:04:10.170Z,31.87
2019-02-20T06:06:41.505Z,34.50
2019-02-20T06:09:13.771Z,30.93
2019-02-20T06:11:45.571Z,31.67
2019-02-20T06:14:15.431Z,31.67
2019-02-20T06:16:49.659Z,32.73
2019-02-20T06:19:19.922Z,35.33
2019-02-20T06:21:51.126Z,31.87
2019-02-20T06:24:22.518Z,28.50
2019-02-20T06:26:53.878Z,26.90
2019-02-20T06:29:27.291Z,27.17
2019-02-20T06:31:57.620Z,33.57
2019-02-20T06:34:29.656Z,30.00
2019-02-20T06:37:00.219Z,28.73
2019-02-20T06:39:32.915Z,30.23
2019-02-20T06:42:02.904Z,25.73
2019-02-20T06:44:34.419Z,24.83
2019-02-20T06:47:05.290Z,30.20
2019-02-20T06:49:36.140Z,29.90
2019-02-20T06:52:08.618Z,27.47
2019-02-20T06:54:39.039Z,26.20
2019-02-20T06:57:12.243Z,29.37
2019-02-20T06:59:43.672Z,29.87
2019-02-20T07:02:13.495Z,32.85
2019-02-20T07:04:46.362Z,33.13
2019-02-20T07:07:20.082Z,34.30
2019-02-20T07:10:01.861Z,31.73
2019-02-20T07:12:40.567Z,30.50
2019-02-20T07:15:26.328Z,27.87
2019-02-20T07:18:32.439Z,28.47
2019-02-20T07:21:33.571Z,28.50
2019-02-20T07:24:09.098Z,30.47
2019-02-20T07:27:01.046Z,31.43
2019-02-20T07:29:48.808Z,28.93
2019-02-20T07:32:19.109Z,27.93
2019-02-20T07:34:52.359Z,28.33
2019-02-20T07:37:22.097Z,29.93
2019-02-20T07:39:51.746Z,31.07
2019-02-20T07:42:23.045Z,28.40
2019-02-20T07:44:53.234Z,31.53
2019-02-20T07:47:25.236Z,31.13
2019-02-20T07:49:55.714Z,29.43
2019-02-20T07:52:27.627Z,30.93
2019-02-20T07:54:59.418Z,30.33
2019-02-20T07:57:29.120Z,31.87
2019-02-20T08:00:00.033Z,31.60
2019-02-20T08:02:34.803Z,28.17
2019-02-20T08:05:08.407Z,33.47
2019-02-20T08:07:39.323Z,32.17
2019-02-20T08:10:13.831Z,31.90
2019-02-20T08:12:45.280Z,30.97
2019-02-20T08:15:17.381Z,31.30
2019-02-20T08:17:47.675Z,28.40
2019-02-20T08:20:20.594Z,29.82
2019-02-20T08:22:51.221Z,30.23
2019-02-20T08:25:23.275Z,32.98
2019-02-20T08:27:55.718Z,30.00
2019-02-20T08:30:27.037Z,28.87
2019-02-20T08:32:57.429Z,26.97
2019-02-20T08:35:33.250Z,31.47
2019-02-20T08:38:04.081Z,34.40
2019-02-20T08:40:34.544Z,30.40
2019-02-20T08:43:06.171Z,30.43
2019-02-20T08:45:37.132Z,29.00
2019-02-20T08:48:08.457Z,27.45
2019-02-20T08:50:40.081Z,26.90
2019-02-20T08:53:11.427Z,29.60
2019-02-20T08:55:41.658Z,33.63
2019-02-20T08:58:13.569Z,30.20
2019-02-20T09:00:43.905Z,28.93
2019-02-20T09:03:17.746Z,26.40
2019-02-20T09:05:48.392Z,31.47
2019-02-20T09:08:19.910Z,28.60
2019-02-20T09:10:51.481Z,27.42
2019-02-20T09:13:22.192Z,28.73
2019-02-20T09:15:51.977Z,26.33
2019-02-20T09:18:25.243Z,25.80
2019-02-20T09:20:57.046Z,29.83
2019-02-20T09:23:27.894Z,30.67
2019-02-20T09:26:00.320Z,30.32
2019-02-20T09:28:32.050Z,24.47
2019-02-20T09:31:01.830Z,28.90
2019-02-20T09:33:33.356Z,24.33
2019-02-20T09:36:03.790Z,25.97
2019-02-20T09:38:37.859Z,27.40
2019-02-20T09:41:11.408Z,27.90
2019-02-20T09:43:45.151Z,24.73
2019-02-20T09:46:16.608Z,20.70
2019-02-20T09:48:50.741Z,28.97
2019-02-20T09:51:42.375Z,24.77
2019-02-20T09:54:13.737Z,22.53
2019-02-20T09:56:46.830Z,23.00
2019-02-20T09:59:17.572Z,28.63
2019-02-20T10:01:48.127Z,23.67
2019-02-20T10:04:18.858Z,23.83
2019-02-20T10:06:50.251Z,26.73
2019-02-20T10:09:21.248Z,26.90
2019-02-20T10:11:51.943Z,33.83
2019-02-20T10:14:23.852Z,29.10
2019-02-20T10:16:54.069Z,34.03
2019-02-20T10:19:25.035Z,29.83
2019-02-20T10:21:54.899Z,32.27
2019-02-20T10:24:27.152Z,30.90
2019-02-20T10:27:00.576Z,24.87
2019-02-20T10:29:31.859Z,22.20
2019-02-20T10:32:01.524Z,19.57
2019-02-20T10:34:33.259Z,20.70
2019-02-20T10:37:05.957Z,17.80
2019-02-20T10:39:35.790Z,20.20
2019-02-20T10:42:07.847Z,16.67
2019-02-20T10:44:38.382Z,20.67
2019-02-20T10:47:11.906Z,18.03
2019-02-20T10:49:42.267Z,18.03
2019-02-20T10:52:13.815Z,20.00
2019-02-20T10:54:45.769Z,18.87
2019-02-20T10:57:17.297Z,18.23
2019-02-20T10:59:48.857Z,21.63
2019-02-20T11:02:21.096Z,20.00
2019-02-20T11:04:50.794Z,19.07
2019-02-20T11:07:21.070Z,19.02
2019-02-20T11:09:52.147Z,21.33
2019-02-20T11:12:22.865Z,18.73
2019-02-20T11:14:55.796Z,20.27
2019-02-20T11:17:29.329Z,19.30
2019-02-20T11:20:01.557Z,26.37
2019-02-20T11:22:32.811Z,36.37
2019-02-20T11:25:04.242Z,25.80
2019-02-20T11:27:39.478Z,19.23
2019-02-20T11:30:14.518Z,18.57
2019-02-20T11:32:45.360Z,18.80
2019-02-20T11:35:17.055Z,15.43
2019-02-20T11:37:48.463Z,20.17
2019-02-20T11:40:19.700Z,17.87
2019-02-20T11:42:50.019Z,30.37
2019-02-20T11:45:20.395Z,19.47
2019-02-20T11:47:51.229Z,19.40
2019-02-20T11:50:21.827Z,17.62
2019-02-20T11:52:52.180Z,15.27
2019-02-20T11:55:23.660Z,17.50
2019-02-20T11:58:00.788Z,18.53
2019-02-20T12:00:28.359Z,16.83
2019-02-20T12:02:58.752Z,14.93
2019-02-20T12:05:32.285Z,17.87
2019-02-20T12:08:03.223Z,14.43
2019-02-20T12:10:36.619Z,15.63
2019-02-20T12:13:09.618Z,14.63
2019-02-20T12:15:41.816Z,14.00
2019-02-20T12:18:17.322Z,14.27
2019-02-20T12:20:44.051Z,16.20
2019-02-20T12:23:14.399Z,18.20
2019-02-20T12:25:44.307Z,17.37
2019-02-20T12:28:13.967Z,15.17
2019-02-20T12:30:44.511Z,15.40
2019-02-20T12:33:15.940Z,15.20
2019-02-20T12:35:46.188Z,10.00
2019-02-20T12:38:18.059Z,11.30
2019-02-20T12:40:47.584Z,9.80
2019-02-20T12:43:26.412Z,6.42
2019-02-20T12:45:57.287Z,5.63
2019-02-20T12:48:27.443Z,4.90
2019-02-20T12:50:58.459Z,3.90
2019-02-20T12:53:28.939Z,3.97
2019-02-20T12:55:59.250Z,7.80
2019-02-20T12:58:29.581Z,5.30
2019-02-20T13:01:02.107Z,10.47
2019-02-20T13:03:34.054Z,5.23
2019-02-20T13:06:04.868Z,10.63
2019-02-20T13:08:36.437Z,81.63
2019-02-20T13:11:08.691Z,7.57
2019-02-20T13:13:40.708Z,4.43
2019-02-20T13:16:12.136Z,6.77
2019-02-20T13:18:44.860Z,5.67
2019-02-20T13:21:16.102Z,4.85
2019-02-20T13:23:46.359Z,7.90
2019-02-20T13:26:17.073Z,3.67
2019-02-20T13:28:49.436Z,7.67
2019-02-20T13:31:22.417Z,4.62
2019-02-20T13:33:54.024Z,6.80
2019-02-20T13:36:23.759Z,4.70
2019-02-20T13:38:54.954Z,5.00
2019-02-20T13:41:26.459Z,4.13
2019-02-20T13:43:59.488Z,4.73
2019-02-20T13:46:29.222Z,3.20
2019-02-20T13:49:00.730Z,2.77
2019-02-20T13:51:33.302Z,5.63
2019-02-20T13:54:07.776Z,2.00
2019-02-20T13:56:38.969Z,3.03
2019-02-20T13:59:10.934Z,6.53
2019-02-20T14:01:42.335Z,11.77
2019-02-20T14:04:14.312Z,17.90
2019-02-20T14:06:44.558Z,16.03
2019-02-20T14:09:17.302Z,17.00
2019-02-20T14:11:46.674Z,13.57
2019-02-20T14:14:21.702Z,16.27
2019-02-20T14:16:53.945Z,14.53
2019-02-20T14:19:24.710Z,10.90
2019-02-20T14:21:54.376Z,10.83
2019-02-20T14:24:25.475Z,9.47
2019-02-20T14:26:58.296Z,8.47
2019-02-20T14:29:29.784Z,6.30
2019-02-20T14:32:00.260Z,10.13
2019-02-20T14:34:29.990Z,7.20
2019-02-20T14:37:00.134Z,32.00
2019-02-20T14:39:31.493Z,3.80
2019-02-20T14:42:01.037Z,5.87
2019-02-20T14:44:34.060Z,4.53
2019-02-20T14:47:04.450Z,8.73
2019-02-20T14:49:35.342Z,3.57
2019-02-20T14:52:07.342Z,3.85
2019-02-20T14:54:40.380Z,4.60
2019-02-20T14:57:19.362Z,3.17
2019-02-20T14:59:44.003Z,5.43
2019-02-20T15:02:13.690Z,6.30
2019-02-20T15:04:45.055Z,12.70
2019-02-20T15:07:16.590Z,10.58
2019-02-20T15:09:49.942Z,18.53
2019-02-20T15:12:21.080Z,13.40
2019-02-20T15:14:51.509Z,13.27
2019-02-20T15:17:25.144Z,13.60
2019-02-20T15:19:55.471Z,14.47
2019-02-20T15:22:27.659Z,15.00
2019-02-20T15:24:58.291Z,13.10
2019-02-20T15:27:29.031Z,16.00
2019-02-20T15:30:01.171Z,13.15
2019-02-20T15:32:32.498Z,23.30
2019-02-20T15:35:02.851Z,14.77
2019-02-20T15:37:32.225Z,16.83
2019-02-20T15:40:04.382Z,12.87
2019-02-20T15:42:37.349Z,16.03
2019-02-20T15:45:09.826Z,17.67
2019-02-20T15:47:40.436Z,16.13
2019-02-20T15:50:13.697Z,16.07
2019-02-20T15:52:45.468Z,14.97
2019-02-20T15:55:16.812Z,18.10
2019-02-20T15:57:49.068Z,19.00
2019-02-20T16:00:25.170Z,15.43
2019-02-20T16:02:57.122Z,17.90
2019-02-20T16:05:27.830Z,21.13
2019-02-20T16:07:59.192Z,13.73
2019-02-20T16:10:39.167Z,36.00
2019-02-20T16:13:11.204Z,23.03
2019-02-20T16:15:44.900Z,24.67
2019-02-20T16:18:15.167Z,31.87
2019-02-20T16:20:47.595Z,20.87
2019-02-20T16:23:26.531Z,48.33
2019-02-20T16:25:59.689Z,21.03
2019-02-20T16:28:38.602Z,19.07
2019-02-20T16:31:13.574Z,22.20
2019-02-20T16:33:47.244Z,18.30
2019-02-20T16:36:20.116Z,20.07
2019-02-20T16:38:55.253Z,22.97
2019-02-20T16:41:27.688Z,22.10
2019-02-20T16:44:03.301Z,22.23
2019-02-20T16:46:41.211Z,24.47
2019-02-20T16:49:16.763Z,23.07
2019-02-20T16:51:48.819Z,22.53
2019-02-20T16:54:24.995Z,17.17
2019-02-20T16:56:55.836Z,80.03
2019-02-20T16:59:28.083Z,25.47
2019-02-20T17:02:00.186Z,63.90
2019-02-20T17:04:30.953Z,53.30
2019-02-20T17:07:02.536Z,23.37
2019-02-20T17:09:34.066Z,23.47
2019-02-20T17:12:04.912Z,29.43
2019-02-20T17:14:36.576Z,30.50
2019-02-20T17:17:09.657Z,26.50
2019-02-20T17:19:41.715Z,28.17
2019-02-20T17:22:11.872Z,24.33
2019-02-20T17:25:01.279Z,30.67
2019-02-20T17:27:32.514Z,38.80
2019-02-20T17:30:05.226Z,27.80
2019-02-20T17:32:36.469Z,26.87
2019-02-20T17:35:07.859Z,31.73
2019-02-20T17:37:40.047Z,29.40
2019-02-20T17:40:12.038Z,33.40
2019-02-20T17:42:42.744Z,29.43
2019-02-20T17:45:16.906Z,34.73
2019-02-20T17:47:49.211Z,29.33
2019-02-20T17:50:21.677Z,33.47
2019-02-20T17:52:53.721Z,28.80
2019-02-20T17:55:24.735Z,23.47
2019-02-20T17:57:56.897Z,25.90
2019-02-20T18:00:29.425Z,31.20
2019-02-20T18:03:02.197Z,32.37
2019-02-20T18:05:33.666Z,33.23
2019-02-20T18:08:04.512Z,28.10
2019-02-20T18:10:36.630Z,28.07
2019-02-20T18:13:06.356Z,27.13
2019-02-20T18:15:37.972Z,32.87
2019-02-20T18:18:10.605Z,32.78
2019-02-20T18:20:43.425Z,32.57
2019-02-20T18:23:17.987Z,33.27
2019-02-20T18:25:49.786Z,34.83
2019-02-20T18:28:24.529Z,29.07
2019-02-20T18:30:55.331Z,29.00
2019-02-20T18:33:28.823Z,29.90
2019-02-20T18:35:58.589Z,29.67
2019-02-20T18:38:30.583Z,29.67
2019-02-20T18:41:03.324Z,26.67
2019-02-20T18:43:34.528Z,33.03
2019-02-20T18:46:08.705Z,31.83
2019-02-20T18:48:39.553Z,33.50
2019-02-20T18:51:10.905Z,27.13
2019-02-20T18:53:44.955Z,27.80
2019-02-20T18:56:16.411Z,27.27
2019-02-20T18:58:47.893Z,26.43
2019-02-20T19:01:20.057Z,30.57
2019-02-20T19:03:50.307Z,28.43
2019-02-20T19:06:21.776Z,36.00
2019-02-20T19:08:52.614Z,33.87
2019-02-20T19:11:37.238Z,24.20
2019-02-20T19:14:44.509Z,32.10
2019-02-20T19:17:53.284Z,34.67
2019-02-20T19:20:45.367Z,25.73
2019-02-20T19:23:29.117Z,26.13
2019-02-20T19:26:24.175Z,34.73
2019-02-20T19:29:32.276Z,31.63
2019-02-20T19:32:29.998Z,29.57
2019-02-20T19:35:05.555Z,36.40
2019-02-20T19:37:44.491Z,28.90
2019-02-20T19:40:32.125Z,31.77
2019-02-20T19:43:27.694Z,26.57
2019-02-20T19:46:08.237Z,28.77
2019-02-20T19:48:42.093Z,32.37
2019-02-20T19:51:26.824Z,30.57
2019-02-20T19:54:07.724Z,25.53
2019-02-20T19:57:02.167Z,29.50
2019-02-20T19:59:40.239Z,30.80
2019-02-20T20:02:37.193Z,27.60
2019-02-20T20:05:22.904Z,30.83
2019-02-20T20:08:14.853Z,39.60
2019-02-20T20:11:06.691Z,30.47
2019-02-20T20:13:42.030Z,44.97
2019-02-20T20:16:20.084Z,51.03
2019-02-20T20:19:01.560Z,51.70
2019-02-20T20:21:43.112Z,32.20
2019-02-20T20:24:36.618Z,40.70
2019-02-20T20:27:32.563Z,34.00
2019-02-20T20:30:08.868Z,34.97
2019-02-20T20:32:58.843Z,33.37
2019-02-20T20:35:40.255Z,31.50
2019-02-20T20:38:31.438Z,31.80
2019-02-20T20:41:10.761Z,31.33
2019-02-20T20:44:04.737Z,30.43
2019-02-20T20:46:54.751Z,26.23
2019-02-20T20:49:42.720Z,26.83
2019-02-20T20:52:21.366Z,30.40
2019-02-20T20:55:05.407Z,33.47
2019-02-20T20:57:41.104Z,31.53
2019-02-20T21:00:33.998Z,28.43
2019-02-20T21:03:09.322Z,26.90
2019-02-20T21:05:57.851Z,29.87
2019-02-20T21:08:42.894Z,33.17
2019-02-20T21:11:25.563Z,34.67
2019-02-20T21:14:02.511Z,96.43
2019-02-20T21:16:45.154Z,34.80
2019-02-20T21:19:36.896Z,30.73
2019-02-20T21:22:19.895Z,29.10
2019-02-20T21:25:14.416Z,24.93
2019-02-20T21:28:09.463Z,32.90
2019-02-20T21:31:06.069Z,32.83
2019-02-20T21:34:01.868Z,34.13
2019-02-20T21:36:49.263Z,31.03
2019-02-20T21:39:46.380Z,24.47
2019-02-20T21:42:31.865Z,27.30
2019-02-20T21:45:13.358Z,29.23
2019-02-20T21:47:56.197Z,26.27
2019-02-20T21:50:37.442Z,27.83
2019-02-20T21:53:17.366Z,25.47
2019-02-20T21:56:02.884Z,28.20
2019-02-20T21:58:42.739Z,29.20
2019-02-20T22:01:22.167Z,24.43
2019-02-20T22:04:21.947Z,24.30
2019-02-20T22:07:09.657Z,29.37
2019-02-20T22:10:07.877Z,32.20
2019-02-20T22:12:51.205Z,26.43
2019-02-20T22:15:27.969Z,32.70
2019-02-20T22:18:03.526Z,29.77
2019-02-20T22:20:39.551Z,28.60
2019-02-20T22:23:16.951Z,28.50
2019-02-20T22:26:01.475Z,32.27
2019-02-20T22:28:43.061Z,28.30
2019-02-20T22:31:18.323Z,38.00
2019-02-20T22:34:12.501Z,27.60
2019-02-20T22:37:05.941Z,31.13
2019-02-20T22:39:40.573Z,30.80
2019-02-20T22:42:29.465Z,26.67
2019-02-20T22:45:25.699Z,27.70
2019-02-20T22:48:16.655Z,28.67
2019-02-20T22:50:58.728Z,32.23
2019-02-20T22:54:06.290Z,31.27
2019-02-20T22:56:58.469Z,31.73
2019-02-20T23:00:01.897Z,27.83
2019-02-20T23:02:31.428Z,28.23
2019-02-20T23:05:23.982Z,31.07
2019-02-20T23:08:20.836Z,34.07
2019-02-20T23:11:11.403Z,31.70
2019-02-20T23:13:56.448Z,30.00
2019-02-20T23:16:26.693Z,30.43
2019-02-20T23:18:57.426Z,35.37
2019-02-20T23:21:28.942Z,27.93
2019-02-20T23:23:59.369Z,31.47
2019-02-20T23:29:04.258Z,28.57
2019-02-20T23:31:34.862Z,23.83
2019-02-20T23:34:04.479Z,31.43
2019-02-20T23:36:35.410Z,41.97
2019-02-20T23:39:09.108Z,28.97
2019-02-20T23:41:39.848Z,28.80
2019-02-20T23:44:11.517Z,29.37
2019-02-20T23:46:43.405Z,29.40
2019-02-20T23:49:13.748Z,27.97
2019-02-20T23:51:46.466Z,30.13
2019-02-20T23:54:17.244Z,24.97
2019-02-20T23:56:51.267Z,24.83
2019-02-20T23:59:22.369Z,27.90
